CYGX

Details ICAO CYGX (YGX)
Name Gillam
Region Canada
Timezone America/Winnipeg (UTC-5.0)
Plans Departing 2
Arriving 4
Stats Elevation 476 ft / 145 m (AMSL)
Location 56.357830° -94.710327°
Runways 1
Magnetic Variation 0.518° W
Sunrise 2018-05-21 09:54:39 UTC / 2018-05-21 04:54:39 Local
Sunset 2018-05-22 02:39:07 UTC / 2018-05-21 21:39:07 Local
Advertisement - Login to hide

Runways

ID Width Length Bearing (true) Bearing (mag) Surface Threshold Offset Overrun Length
05 150 ft / 46 m 5,005 ft / 1,525 m 48.99° 49.51° Gravel 0 ft / 0 m 0 ft / 0 m
23 150 ft / 46 m 5,005 ft / 1,525 m 229.01° 229.53° Gravel 0 ft / 0 m 0 ft / 0 m

Map

Weather


0- 5 10 15 20 25 30 35+ Temperature / ° C

Clouds and Precipitation
Forecast for 2018-05-22 00:00 UTC. Updated 2 hours ago

Ground ~20,000 ft ~40,000 ft Winds

METAR

CYGX 220100Z 05011G17KT 15SM SCT030 BKN240 02/M04 A3002 RMK CU3CC4 SLP176

TAF

TAF CYGX 220038Z 2201/2213 06012KT P6SM SCT020 OVC250 RMK NXT FCST BY 220700Z
Warning: Do not use this data for real-world aviation or navigation. No guarantee of current accuracy is given.